sensor_id;sensor_type;location;lat;lon;timestamp;temperature;humidity
20833;DHT22;56075;51.264;7.150;2024-02-04T00:01:24;9.60;99.90
20833;DHT22;56075;51.264;7.150;2024-02-04T00:03:56;9.90;99.90
20833;DHT22;56075;51.264;7.150;2024-02-04T00:06:27;9.90;99.90
20833;DHT22;56075;51.264;7.150;2024-02-04T00:14:01;9.50;99.90
20833;DHT22;56075;51.264;7.150;2024-02-04T00:21:35;9.90;99.90
20833;DHT22;56075;51.264;7.150;2024-02-04T00:26:38;9.90;99.90
20833;DHT22;56075;51.264;7.150;2024-02-04T00:31:41;9.80;99.90
20833;DHT22;56075;51.264;7.150;2024-02-04T00:34:12;9.80;99.90
20833;DHT22;56075;51.264;7.150;2024-02-04T00:39:14;9.70;99.90
20833;DHT22;56075;51.264;7.150;2024-02-04T00:46:48;9.80;99.90
20833;DHT22;56075;51.264;7.150;2024-02-04T00:49:20;9.70;99.90
20833;DHT22;56075;51.264;7.150;2024-02-04T00:56:54;9.60;99.90
20833;DHT22;56075;51.264;7.150;2024-02-04T00:59:26;9.70;99.90
20833;DHT22;56075;51.264;7.150;2024-02-04T01:09:33;9.60;99.90
20833;DHT22;56075;51.264;7.150;2024-02-04T01:14:35;9.60;99.90
20833;DHT22;56075;51.264;7.150;2024-02-04T01:24:42;9.60;99.90
20833;DHT22;56075;51.264;7.150;2024-02-04T01:29:44;9.50;99.90
20833;DHT22;56075;51.264;7.150;2024-02-04T01:37:19;9.60;99.90
20833;DHT22;56075;51.264;7.150;2024-02-04T01:42:21;9.30;99.90
20833;DHT22;56075;51.264;7.150;2024-02-04T02:02:41;9.60;99.90
20833;DHT22;56075;51.264;7.150;2024-02-04T02:28:25;10.00;99.90
20833;DHT22;56075;51.264;7.150;2024-02-04T02:38:39;9.90;99.90
20833;DHT22;56075;51.264;7.150;2024-02-04T02:41:15;9.80;99.90
20833;DHT22;56075;51.264;7.150;2024-02-04T02:46:19;9.80;99.90
20833;DHT22;56075;51.264;7.150;2024-02-04T02:53:54;9.90;99.90
20833;DHT22;56075;51.264;7.150;2024-02-04T03:03:59;9.90;99.90
20833;DHT22;56075;51.264;7.150;2024-02-04T03:29:17;10.00;99.90
20833;DHT22;56075;51.264;7.150;2024-02-04T03:31:48;10.00;99.90
20833;DHT22;56075;51.264;7.150;2024-02-04T03:36:51;10.10;99.90
20833;DHT22;56075;51.264;7.150;2024-02-04T03:39:23;10.00;99.90
20833;DHT22;56075;51.264;7.150;2024-02-04T03:44:26;9.90;99.90
20833;DHT22;56075;51.264;7.150;2024-02-04T03:52:00;10.10;99.90
20833;DHT22;56075;51.264;7.150;2024-02-04T03:57:03;10.00;99.90
20833;DHT22;56075;51.264;7.150;2024-02-04T04:04:40;10.00;99.90
20833;DHT22;56075;51.264;7.150;2024-02-04T04:07:12;9.90;99.90
20833;DHT22;56075;51.264;7.150;2024-02-04T04:12:15;10.00;99.90
20833;DHT22;56075;51.264;7.150;2024-02-04T04:14:46;9.90;99.90
20833;DHT22;56075;51.264;7.150;2024-02-04T04:17:17;10.00;99.90
20833;DHT22;56075;51.264;7.150;2024-02-04T04:22:20;10.00;99.90
20833;DHT22;56075;51.264;7.150;2024-02-04T04:24:51;9.90;99.90
20833;DHT22;56075;51.264;7.150;2024-02-04T04:32:25;10.00;99.90
20833;DHT22;56075;51.264;7.150;2024-02-04T04:37:28;10.10;99.90
20833;DHT22;56075;51.264;7.150;2024-02-04T04:39:59;10.10;99.90
20833;DHT22;56075;51.264;7.150;2024-02-04T04:45:02;10.10;99.90
20833;DHT22;56075;51.264;7.150;2024-02-04T04:47:34;10.10;99.90
20833;DHT22;56075;51.264;7.150;2024-02-04T04:55:08;10.00;99.90
20833;DHT22;56075;51.264;7.150;2024-02-04T04:57:42;10.10;99.90
20833;DHT22;56075;51.264;7.150;2024-02-04T05:10:19;10.00;99.90
20833;DHT22;56075;51.264;7.150;2024-02-04T05:33:03;10.00;99.90
20833;DHT22;56075;51.264;7.150;2024-02-04T05:38:08;10.10;99.90
20833;DHT22;56075;51.264;7.150;2024-02-04T05:43:11;10.10;99.90
20833;DHT22;56075;51.264;7.150;2024-02-04T05:48:14;10.10;99.90
20833;DHT22;56075;51.264;7.150;2024-02-04T06:05:53;10.10;99.90
20833;DHT22;56075;51.264;7.150;2024-02-04T06:10:56;10.10;99.90
20833;DHT22;56075;51.264;7.150;2024-02-04T06:13:27;10.10;99.90
20833;DHT22;56075;51.264;7.150;2024-02-04T06:15:58;10.00;99.90
20833;DHT22;56075;51.264;7.150;2024-02-04T06:21:01;10.00;99.90
20833;DHT22;56075;51.264;7.150;2024-02-04T06:38:43;9.90;99.90
20833;DHT22;56075;51.264;7.150;2024-02-04T06:43:46;10.00;99.90
20833;DHT22;56075;51.264;7.150;2024-02-04T06:46:27;10.00;99.90
20833;DHT22;56075;51.264;7.150;2024-02-04T06:48:58;10.00;99.90
20833;DHT22;56075;51.264;7.150;2024-02-04T06:54:01;9.70;99.90
20833;DHT22;56075;51.264;7.150;2024-02-04T06:59:03;10.00;99.90
20833;DHT22;56075;51.264;7.150;2024-02-04T07:11:40;9.90;99.90
20833;DHT22;56075;51.264;7.150;2024-02-04T07:14:11;10.00;99.90
20833;DHT22;56075;51.264;7.150;2024-02-04T07:16:42;9.90;99.90
20833;DHT22;56075;51.264;7.150;2024-02-04T07:21:45;9.70;99.90
20833;DHT22;56075;51.264;7.150;2024-02-04T07:26:49;10.00;99.90
20833;DHT22;56075;51.264;7.150;2024-02-04T07:31:52;9.70;99.90
20833;DHT22;56075;51.264;7.150;2024-02-04T07:34:23;9.90;99.90
20833;DHT22;56075;51.264;7.150;2024-02-04T07:36:54;9.90;99.90
20833;DHT22;56075;51.264;7.150;2024-02-04T07:47:02;10.00;99.90
20833;DHT22;56075;51.264;7.150;2024-02-04T07:52:05;10.00;99.90
20833;DHT22;56075;51.264;7.150;2024-02-04T07:54:36;10.10;99.90
20833;DHT22;56075;51.264;7.150;2024-02-04T07:57:07;10.00;99.90
20833;DHT22;56075;51.264;7.150;2024-02-04T08:04:41;10.00;99.90
20833;DHT22;56075;51.264;7.150;2024-02-04T08:24:53;9.80;99.90
20833;DHT22;56075;51.264;7.150;2024-02-04T08:42:34;10.10;99.90
20833;DHT22;56075;51.264;7.150;2024-02-04T08:47:36;9.80;99.90
20833;DHT22;56075;51.264;7.150;2024-02-04T09:00:16;10.00;99.90
20833;DHT22;56075;51.264;7.150;2024-02-04T09:02:47;10.20;99.90
20833;DHT22;56075;51.264;7.150;2024-02-04T09:05:18;10.10;99.90
20833;DHT22;56075;51.264;7.150;2024-02-04T09:17:56;10.20;99.90
20833;DHT22;56075;51.264;7.150;2024-02-04T09:22:59;10.10;99.90
20833;DHT22;56075;51.264;7.150;2024-02-04T09:28:01;10.20;99.90
20833;DHT22;56075;51.264;7.150;2024-02-04T09:33:04;10.20;99.90
20833;DHT22;56075;51.264;7.150;2024-02-04T09:35:35;10.20;99.90
20833;DHT22;56075;51.264;7.150;2024-02-04T09:38:06;10.00;99.90
20833;DHT22;56075;51.264;7.150;2024-02-04T09:40:38;10.20;99.90
20833;DHT22;56075;51.264;7.150;2024-02-04T09:43:09;10.20;99.90
20833;DHT22;56075;51.264;7.150;2024-02-04T09:45:41;10.20;99.90
20833;DHT22;56075;51.264;7.150;2024-02-04T09:50:45;10.20;99.90
20833;DHT22;56075;51.264;7.150;2024-02-04T09:53:21;10.30;99.90
20833;DHT22;56075;51.264;7.150;2024-02-04T09:55:55;10.30;99.90
20833;DHT22;56075;51.264;7.150;2024-02-04T10:01:00;10.20;99.90
20833;DHT22;56075;51.264;7.150;2024-02-04T10:06:04;9.90;99.90
20833;DHT22;56075;51.264;7.150;2024-02-04T10:08:37;10.20;99.90
20833;DHT22;56075;51.264;7.150;2024-02-04T10:16:18;10.20;99.90
20833;DHT22;56075;51.264;7.150;2024-02-04T10:26:30;10.20;99.90
20833;DHT22;56075;51.264;7.150;2024-02-04T10:41:49;10.30;99.90
20833;DHT22;56075;51.264;7.150;2024-02-04T10:52:03;10.30;99.90
20833;DHT22;56075;51.264;7.150;2024-02-04T10:57:12;10.30;99.90
20833;DHT22;56075;51.264;7.150;2024-02-04T10:59:47;10.30;99.90
20833;DHT22;56075;51.264;7.150;2024-02-04T11:02:19;10.30;99.90
20833;DHT22;56075;51.264;7.150;2024-02-04T11:04:51;10.40;99.90
20833;DHT22;56075;51.264;7.150;2024-02-04T11:09:55;10.40;99.90
20833;DHT22;56075;51.264;7.150;2024-02-04T11:12:30;10.40;99.90
20833;DHT22;56075;51.264;7.150;2024-02-04T11:15:04;10.50;99.90
20833;DHT22;56075;51.264;7.150;2024-02-04T11:26:19;10.30;99.90
20833;DHT22;56075;51.264;7.150;2024-02-04T11:31:23;10.30;99.90
20833;DHT22;56075;51.264;7.150;2024-02-04T11:36:26;10.30;99.90
20833;DHT22;56075;51.264;7.150;2024-02-04T11:41:28;10.30;99.90
20833;DHT22;56075;51.264;7.150;2024-02-04T11:44:00;10.40;99.90
20833;DHT22;56075;51.264;7.150;2024-02-04T11:49:15;10.20;99.90
20833;DHT22;56075;51.264;7.150;2024-02-04T11:54:20;10.40;99.90
20833;DHT22;56075;51.264;7.150;2024-02-04T11:56:52;10.40;99.90
20833;DHT22;56075;51.264;7.150;2024-02-04T12:14:36;10.20;99.90
20833;DHT22;56075;51.264;7.150;2024-02-04T12:17:10;10.20;99.90
20833;DHT22;56075;51.264;7.150;2024-02-04T12:29:51;10.30;99.90
20833;DHT22;56075;51.264;7.150;2024-02-04T12:32:23;10.10;99.90
20833;DHT22;56075;51.264;7.150;2024-02-04T12:40:00;10.10;99.90
20833;DHT22;56075;51.264;7.150;2024-02-04T12:47:36;10.30;99.90
20833;DHT22;56075;51.264;7.150;2024-02-04T12:50:10;10.40;99.90
20833;DHT22;56075;51.264;7.150;2024-02-04T12:52:43;10.40;99.90
20833;DHT22;56075;51.264;7.150;2024-02-04T13:03:08;10.30;99.90
20833;DHT22;56075;51.264;7.150;2024-02-04T13:10:42;10.40;99.90
20833;DHT22;56075;51.264;7.150;2024-02-04T13:13:15;10.40;99.90
20833;DHT22;56075;51.264;7.150;2024-02-04T13:20:49;10.10;99.90
20833;DHT22;56075;51.264;7.150;2024-02-04T13:25:52;10.40;99.90
20833;DHT22;56075;51.264;7.150;2024-02-04T13:28:23;10.50;99.90
20833;DHT22;56075;51.264;7.150;2024-02-04T13:33:25;10.40;99.90
20833;DHT22;56075;51.264;7.150;2024-02-04T13:35:57;10.30;99.90
20833;DHT22;56075;51.264;7.150;2024-02-04T13:46:03;10.20;99.90
20833;DHT22;56075;51.264;7.150;2024-02-04T13:48:34;10.40;99.90
20833;DHT22;56075;51.264;7.150;2024-02-04T13:51:05;10.40;99.90
20833;DHT22;56075;51.264;7.150;2024-02-04T13:53:37;10.30;99.90
20833;DHT22;56075;51.264;7.150;2024-02-04T13:58:39;10.40;99.90
20833;DHT22;56075;51.264;7.150;2024-02-04T14:18:52;10.40;99.90
20833;DHT22;56075;51.264;7.150;2024-02-04T14:23:55;10.40;99.90
20833;DHT22;56075;51.264;7.150;2024-02-04T14:26:26;10.30;99.90
20833;DHT22;56075;51.264;7.150;2024-02-04T14:29:01;10.30;99.90
20833;DHT22;56075;51.264;7.150;2024-02-04T14:34:04;10.40;99.90
20833;DHT22;56075;51.264;7.150;2024-02-04T14:39:07;10.30;99.90
20833;DHT22;56075;51.264;7.150;2024-02-04T14:44:10;10.40;99.90
20833;DHT22;56075;51.264;7.150;2024-02-04T14:49:16;10.20;99.90
20833;DHT22;56075;51.264;7.150;2024-02-04T14:54:19;10.30;99.90
20833;DHT22;56075;51.264;7.150;2024-02-04T15:01:53;10.40;99.90
20833;DHT22;56075;51.264;7.150;2024-02-04T15:04:24;10.40;99.90
20833;DHT22;56075;51.264;7.150;2024-02-04T15:06:56;10.40;99.90
20833;DHT22;56075;51.264;7.150;2024-02-04T15:11:58;10.40;99.90
20833;DHT22;56075;51.264;7.150;2024-02-04T15:14:30;10.40;99.90
20833;DHT22;56075;51.264;7.150;2024-02-04T15:17:01;10.40;99.90
20833;DHT22;56075;51.264;7.150;2024-02-04T15:19:33;10.40;99.90
20833;DHT22;56075;51.264;7.150;2024-02-04T15:22:07;10.40;99.90
20833;DHT22;56075;51.264;7.150;2024-02-04T15:29:42;10.40;99.90
20833;DHT22;56075;51.264;7.150;2024-02-04T15:39:55;10.50;99.90
20833;DHT22;56075;51.264;7.150;2024-02-04T15:47:30;10.70;99.90
20833;DHT22;56075;51.264;7.150;2024-02-04T15:50:03;10.60;99.90
20833;DHT22;56075;51.264;7.150;2024-02-04T15:52:35;10.50;99.90
20833;DHT22;56075;51.264;7.150;2024-02-04T16:00:10;10.50;99.90
20833;DHT22;56075;51.264;7.150;2024-02-04T16:02:49;10.40;99.90
20833;DHT22;56075;51.264;7.150;2024-02-04T16:05:21;10.50;99.90
20833;DHT22;56075;51.264;7.150;2024-02-04T16:12:59;10.50;99.90
20833;DHT22;56075;51.264;7.150;2024-02-04T16:15:31;10.50;99.90
20833;DHT22;56075;51.264;7.150;2024-02-04T16:18:02;10.50;99.90
20833;DHT22;56075;51.264;7.150;2024-02-04T16:23:09;10.30;99.90
20833;DHT22;56075;51.264;7.150;2024-02-04T16:30:43;10.30;99.90
20833;DHT22;56075;51.264;7.150;2024-02-04T16:38:17;10.30;99.90
20833;DHT22;56075;51.264;7.150;2024-02-04T16:40:48;10.40;99.90
20833;DHT22;56075;51.264;7.150;2024-02-04T16:45:51;10.40;99.90
20833;DHT22;56075;51.264;7.150;2024-02-04T16:55:57;10.10;99.90
20833;DHT22;56075;51.264;7.150;2024-02-04T16:58:28;10.40;99.90
20833;DHT22;56075;51.264;7.150;2024-02-04T17:00:59;10.30;99.90
20833;DHT22;56075;51.264;7.150;2024-02-04T17:03:30;10.10;99.90
20833;DHT22;56075;51.264;7.150;2024-02-04T17:06:02;10.30;99.90
20833;DHT22;56075;51.264;7.150;2024-02-04T17:13:37;10.30;99.90
20833;DHT22;56075;51.264;7.150;2024-02-04T17:24:18;10.30;99.90
20833;DHT22;56075;51.264;7.150;2024-02-04T17:26:54;10.40;99.90
20833;DHT22;56075;51.264;7.150;2024-02-04T17:31:58;10.20;99.90
20833;DHT22;56075;51.264;7.150;2024-02-04T17:34:30;10.20;99.90
20833;DHT22;56075;51.264;7.150;2024-02-04T17:37:02;10.30;99.90
20833;DHT22;56075;51.264;7.150;2024-02-04T17:42:06;10.30;99.90
20833;DHT22;56075;51.264;7.150;2024-02-04T17:44:39;10.40;99.90
20833;DHT22;56075;51.264;7.150;2024-02-04T17:49:42;10.20;99.90
20833;DHT22;56075;51.264;7.150;2024-02-04T17:52:13;10.10;99.90
20833;DHT22;56075;51.264;7.150;2024-02-04T17:54:44;10.40;99.90
20833;DHT22;56075;51.264;7.150;2024-02-04T17:57:16;10.20;99.90
20833;DHT22;56075;51.264;7.150;2024-02-04T18:02:19;10.40;99.90
20833;DHT22;56075;51.264;7.150;2024-02-04T18:04:50;10.40;99.90
20833;DHT22;56075;51.264;7.150;2024-02-04T18:09:56;10.30;99.90
20833;DHT22;56075;51.264;7.150;2024-02-04T18:20:02;10.20;99.90
20833;DHT22;56075;51.264;7.150;2024-02-04T18:22:37;10.30;99.90
20833;DHT22;56075;51.264;7.150;2024-02-04T18:25:08;10.40;99.90
20833;DHT22;56075;51.264;7.150;2024-02-04T18:30:13;10.30;99.90
20833;DHT22;56075;51.264;7.150;2024-02-04T18:32:48;10.30;99.90
20833;DHT22;56075;51.264;7.150;2024-02-04T18:45:28;10.20;99.90
20833;DHT22;56075;51.264;7.150;2024-02-04T18:47:59;9.90;99.90
20833;DHT22;56075;51.264;7.150;2024-02-04T18:55:35;10.30;99.90
20833;DHT22;56075;51.264;7.150;2024-02-04T18:58:08;10.20;99.90
20833;DHT22;56075;51.264;7.150;2024-02-04T19:00:39;10.10;99.90
20833;DHT22;56075;51.264;7.150;2024-02-04T19:05:42;10.20;99.90
20833;DHT22;56075;51.264;7.150;2024-02-04T19:10:44;10.10;99.90
20833;DHT22;56075;51.264;7.150;2024-02-04T19:20:53;10.20;99.90
20833;DHT22;56075;51.264;7.150;2024-02-04T19:23:25;10.10;99.90
20833;DHT22;56075;51.264;7.150;2024-02-04T19:28:28;10.10;99.90
20833;DHT22;56075;51.264;7.150;2024-02-04T19:33:30;10.00;99.90
20833;DHT22;56075;51.264;7.150;2024-02-04T19:48:39;9.70;99.90
20833;DHT22;56075;51.264;7.150;2024-02-04T19:51:10;10.10;99.90
20833;DHT22;56075;51.264;7.150;2024-02-04T19:58:47;9.80;99.90
20833;DHT22;56075;51.264;7.150;2024-02-04T20:03:50;9.90;99.90
20833;DHT22;56075;51.264;7.150;2024-02-04T20:08:52;10.00;99.90
20833;DHT22;56075;51.264;7.150;2024-02-04T20:16:29;10.00;99.90
20833;DHT22;56075;51.264;7.150;2024-02-04T20:19:00;10.10;99.90
20833;DHT22;56075;51.264;7.150;2024-02-04T20:21:31;10.00;99.90
20833;DHT22;56075;51.264;7.150;2024-02-04T20:24:02;10.00;99.90
20833;DHT22;56075;51.264;7.150;2024-02-04T20:26:34;10.00;99.90
20833;DHT22;56075;51.264;7.150;2024-02-04T20:29:05;9.90;99.90
20833;DHT22;56075;51.264;7.150;2024-02-04T20:39:12;10.00;99.90
20833;DHT22;56075;51.264;7.150;2024-02-04T20:54:29;9.90;99.90
20833;DHT22;56075;51.264;7.150;2024-02-04T21:02:03;10.00;99.90
20833;DHT22;56075;51.264;7.150;2024-02-04T21:07:06;10.00;99.90
20833;DHT22;56075;51.264;7.150;2024-02-04T21:17:12;10.20;99.90
20833;DHT22;56075;51.264;7.150;2024-02-04T21:22:16;10.10;99.90
20833;DHT22;56075;51.264;7.150;2024-02-04T21:24:48;9.90;99.90
20833;DHT22;56075;51.264;7.150;2024-02-04T21:27:19;10.10;99.90
20833;DHT22;56075;51.264;7.150;2024-02-04T21:34:54;10.20;99.90
20833;DHT22;56075;51.264;7.150;2024-02-04T21:37:26;10.00;99.90
20833;DHT22;56075;51.264;7.150;2024-02-04T21:39:57;10.10;99.90
20833;DHT22;56075;51.264;7.150;2024-02-04T21:42:29;10.20;99.90
20833;DHT22;56075;51.264;7.150;2024-02-04T21:45:01;10.10;99.90
20833;DHT22;56075;51.264;7.150;2024-02-04T21:47:33;10.20;99.90
20833;DHT22;56075;51.264;7.150;2024-02-04T21:50:05;10.20;99.90
20833;DHT22;56075;51.264;7.150;2024-02-04T21:52:37;9.80;99.90
20833;DHT22;56075;51.264;7.150;2024-02-04T21:57:39;10.00;99.90
20833;DHT22;56075;51.264;7.150;2024-02-04T22:00:11;10.10;99.90
20833;DHT22;56075;51.264;7.150;2024-02-04T22:05:14;10.10;99.90
20833;DHT22;56075;51.264;7.150;2024-02-04T22:10:16;10.20;99.90
20833;DHT22;56075;51.264;7.150;2024-02-04T22:17:51;10.40;99.90
20833;DHT22;56075;51.264;7.150;2024-02-04T22:25:25;10.20;99.90
20833;DHT22;56075;51.264;7.150;2024-02-04T22:27:57;10.20;99.90
20833;DHT22;56075;51.264;7.150;2024-02-04T22:30:29;10.10;99.90
20833;DHT22;56075;51.264;7.150;2024-02-04T22:38:04;10.20;99.90
20833;DHT22;56075;51.264;7.150;2024-02-04T22:43:06;10.00;99.90
20833;DHT22;56075;51.264;7.150;2024-02-04T22:48:09;10.20;99.90
20833;DHT22;56075;51.264;7.150;2024-02-04T22:50:40;10.30;99.90
20833;DHT22;56075;51.264;7.150;2024-02-04T22:53:12;10.20;99.90
20833;DHT22;56075;51.264;7.150;2024-02-04T22:55:43;10.30;99.90
20833;DHT22;56075;51.264;7.150;2024-02-04T22:58:14;10.10;99.90
20833;DHT22;56075;51.264;7.150;2024-02-04T23:00:45;10.30;99.90
20833;DHT22;56075;51.264;7.150;2024-02-04T23:10:52;10.30;99.90
20833;DHT22;56075;51.264;7.150;2024-02-04T23:15:54;10.30;99.90
20833;DHT22;56075;51.264;7.150;2024-02-04T23:18:25;10.40;99.90
20833;DHT22;56075;51.264;7.150;2024-02-04T23:20:56;10.30;99.90
20833;DHT22;56075;51.264;7.150;2024-02-04T23:23:28;10.30;99.90
20833;DHT22;56075;51.264;7.150;2024-02-04T23:25:59;10.10;99.90
20833;DHT22;56075;51.264;7.150;2024-02-04T23:31:02;10.30;99.90
20833;DHT22;56075;51.264;7.150;2024-02-04T23:38:36;10.40;99.90
20833;DHT22;56075;51.264;7.150;2024-02-04T23:43:38;10.50;99.90
20833;DHT22;56075;51.264;7.150;2024-02-04T23:48:41;10.40;99.90
20833;DHT22;56075;51.264;7.150;2024-02-04T23:51:12;10.40;99.90
20833;DHT22;56075;51.264;7.150;2024-02-04T23:56:15;10.40;99.90
